Time;durP1;ratioP1;P1;durP2;ratioP2;P2;SDS_P1;SDS_P2;PMS_P1;PMS_P2;Temp;Humidity;BMP_temperature;BMP_pressure;BME280_temperature;BME280_humidity;BME280_pressure;Samples;Min_cycle;Max_cycle;Signal;HPM_P1;HPM_P2
2023/10/14 00:01:03;;;;;;;;;;;23.10;57.50;;;;;;5096192;28;20380;-61
2023/10/14 00:03:32;;;;;;;;;;;23.10;57.50;;;;;;5096005;28;19951;-61
2023/10/14 00:06:00;;;;;;;;;;;23.10;58.10;;;;;;5095967;28;19931;-61
2023/10/14 00:08:31;;;;;;;;;;;23.10;57.60;;;;;;5095514;28;19974;-61
2023/10/14 00:11:06;;;;;;;;;;;23.10;57.50;;;;;;5095787;28;20245;-61
2023/10/14 00:13:41;;;;;;;;;;;23.10;57.60;;;;;;5095278;28;20300;-61
2023/10/14 00:16:13;;;;;;;;;;;23.10;57.50;;;;;;5095556;28;19989;-61
2023/10/14 00:18:44;;;;;;;;;;;23.10;57.60;;;;;;5094904;28;19931;-61
2023/10/14 00:21:12;;;;;;;;;;;23.10;57.60;;;;;;5079096;28;19935;-61
2023/10/14 00:23:39;;;;;;;;;;;23.10;57.60;;;;;;5075071;28;20377;-61
2023/10/14 00:26:16;;;;;;;;;;;23.10;57.50;;;;;;5075376;28;19924;-60
2023/10/14 00:28:54;;;;;;;;;;;23.10;57.50;;;;;;5073755;28;20391;-61
2023/10/14 00:31:22;;;;;;;;;;;23.10;57.40;;;;;;5073805;28;19928;-61
2023/10/14 00:33:52;;;;;;;;;;;23.10;57.40;;;;;;5092339;28;19924;-61
2023/10/14 00:36:20;;;;;;;;;;;23.10;57.40;;;;;;5095184;28;20323;-62
2023/10/14 00:38:55;;;;;;;;;;;23.10;57.40;;;;;;5094974;28;19928;-61
2023/10/14 00:41:26;;;;;;;;;;;23.10;57.40;;;;;;5095387;28;19999;-61
2023/10/14 00:43:54;;;;;;;;;;;23.10;57.40;;;;;;5095311;28;19931;-61
2023/10/14 00:46:23;;;;;;;;;;;23.10;57.40;;;;;;5095107;28;19981;-62
2023/10/14 00:48:58;;;;;;;;;;;23.10;57.40;;;;;;5095104;28;20308;-61
2023/10/14 00:51:27;;;;;;;;;;;23.10;57.40;;;;;;5094991;28;19924;-61
2023/10/14 00:54:02;;;;;;;;;;;23.10;57.40;;;;;;5094837;28;19977;-61
2023/10/14 00:56:31;;;;;;;;;;;23.10;57.40;;;;;;5094863;28;19928;-61
2023/10/14 00:59:02;;;;;;;;;;;23.10;57.40;;;;;;5095110;28;20296;-61
2023/10/14 01:01:49;;;;;;;;;;;23.10;57.40;;;;;;5093477;28;20365;-61
2023/10/14 01:04:19;;;;;;;;;;;23.10;57.50;;;;;;5089292;28;19925;-61
2023/10/14 01:06:55;;;;;;;;;;;23.00;57.40;;;;;;5092312;28;19924;-61
2023/10/14 01:09:31;;;;;;;;;;;23.10;57.50;;;;;;5093411;28;19927;-61
2023/10/14 01:12:16;;;;;;;;;;;23.10;57.60;;;;;;5094709;28;20265;-61
2023/10/14 01:14:44;;;;;;;;;;;23.10;57.50;;;;;;5094431;28;20255;-61
2023/10/14 01:17:20;;;;;;;;;;;23.00;57.40;;;;;;5094350;28;19985;-61
2023/10/14 01:19:47;;;;;;;;;;;23.10;57.50;;;;;;5094441;28;20027;-61
2023/10/14 01:22:14;;;;;;;;;;;23.00;58.00;;;;;;5094327;28;20014;-61
2023/10/14 01:24:41;;;;;;;;;;;23.00;57.40;;;;;;5094190;28;19935;-61
2023/10/14 01:27:10;;;;;;;;;;;23.00;57.50;;;;;;5094620;28;19924;-61
2023/10/14 01:29:41;;;;;;;;;;;23.00;57.50;;;;;;5094088;28;19924;-61
2023/10/14 01:32:23;;;;;;;;;;;23.00;57.50;;;;;;5094165;28;19924;-61
2023/10/14 01:34:56;;;;;;;;;;;23.00;57.50;;;;;;5093952;28;20397;-61
2023/10/14 01:37:26;;;;;;;;;;;23.00;57.50;;;;;;5094221;28;20380;-61
2023/10/14 01:39:57;;;;;;;;;;;23.00;57.50;;;;;;5094003;28;19970;-61
2023/10/14 01:42:24;;;;;;;;;;;23.00;57.50;;;;;;5092616;28;20019;-61
2023/10/14 01:44:53;;;;;;;;;;;23.10;57.50;;;;;;5094205;28;20014;-61
2023/10/14 01:47:25;;;;;;;;;;;23.00;57.40;;;;;;5093893;28;19928;-61
2023/10/14 01:49:53;;;;;;;;;;;23.10;57.50;;;;;;5093799;28;19924;-61
2023/10/14 01:52:20;;;;;;;;;;;23.10;57.40;;;;;;5093804;28;20429;-61
2023/10/14 01:54:47;;;;;;;;;;;23.10;57.40;;;;;;5094018;28;19963;-61
2023/10/14 01:57:17;;;;;;;;;;;23.10;57.50;;;;;;5093988;28;19924;-61
2023/10/14 01:59:46;;;;;;;;;;;23.10;57.40;;;;;;5093983;28;19977;-61
2023/10/14 02:02:19;;;;;;;;;;;23.10;57.50;;;;;;5093608;28;20384;-61
2023/10/14 02:04:47;;;;;;;;;;;23.10;57.40;;;;;;5093907;28;19947;-61
2023/10/14 02:07:21;;;;;;;;;;;23.10;57.40;;;;;;5093694;28;20331;-61
2023/10/14 02:09:48;;;;;;;;;;;23.00;57.40;;;;;;5093634;28;20014;-61
2023/10/14 02:12:15;;;;;;;;;;;23.00;57.40;;;;;;5093725;28;19925;-61
2023/10/14 02:14:56;;;;;;;;;;;23.00;57.40;;;;;;5093539;28;20395;-61
2023/10/14 02:17:24;;;;;;;;;;;23.10;57.50;;;;;;5093424;28;19923;-61
2023/10/14 02:19:54;;;;;;;;;;;23.00;57.40;;;;;;5093696;28;19928;-61
2023/10/14 02:22:24;;;;;;;;;;;23.00;57.40;;;;;;5093405;28;19976;-61
2023/10/14 02:24:56;;;;;;;;;;;23.00;57.40;;;;;;5093775;28;19924;-61
2023/10/14 02:27:23;;;;;;;;;;;23.00;57.40;;;;;;5093672;28;19924;-61
2023/10/14 02:29:51;;;;;;;;;;;23.00;57.40;;;;;;5093828;28;19924;-61
2023/10/14 02:32:20;;;;;;;;;;;23.00;57.60;;;;;;5093013;28;19924;-61
2023/10/14 02:34:47;;;;;;;;;;;23.00;57.50;;;;;;5093471;28;20376;-61
2023/10/14 02:37:15;;;;;;;;;;;23.00;57.50;;;;;;5093357;28;19923;-61
2023/10/14 02:39:50;;;;;;;;;;;23.00;57.50;;;;;;5093814;28;19974;-61
2023/10/14 02:42:18;;;;;;;;;;;23.00;57.50;;;;;;5093169;28;20375;-62
2023/10/14 02:44:47;;;;;;;;;;;23.00;58.00;;;;;;5093630;28;19924;-61
2023/10/14 02:47:14;;;;;;;;;;;23.00;57.50;;;;;;5093340;28;19972;-61
2023/10/14 02:49:41;;;;;;;;;;;23.00;57.60;;;;;;5092278;28;19965;-61
2023/10/14 02:52:18;;;;;;;;;;;23.00;57.60;;;;;;5094562;28;19997;-65
2023/10/14 02:54:54;;;;;;;;;;;23.00;57.60;;;;;;5097033;28;19924;-61
2023/10/14 02:57:25;;;;;;;;;;;23.00;57.60;;;;;;5097220;28;20341;-61
2023/10/14 02:59:57;;;;;;;;;;;23.00;57.50;;;;;;5097135;28;20372;-61
2023/10/14 03:02:26;;;;;;;;;;;23.00;57.50;;;;;;5096927;28;19931;-61
2023/10/14 03:05:08;;;;;;;;;;;23.00;57.50;;;;;;5096976;28;19924;-62
2023/10/14 03:07:44;;;;;;;;;;;23.00;57.40;;;;;;5097164;28;19931;-61
2023/10/14 03:10:27;;;;;;;;;;;23.00;57.40;;;;;;5095517;28;20307;-61
2023/10/14 03:12:57;;;;;;;;;;;23.10;58.00;;;;;;5096655;28;19955;-61
2023/10/14 03:15:27;;;;;;;;;;;23.00;57.40;;;;;;5096770;28;19923;-61
2023/10/14 03:17:58;;;;;;;;;;;23.00;57.40;;;;;;5096623;28;19924;-64
2023/10/14 03:20:34;;;;;;;;;;;23.00;57.40;;;;;;5096896;28;19928;-61
2023/10/14 03:23:04;;;;;;;;;;;23.00;57.40;;;;;;5096587;28;19969;-61
2023/10/14 03:25:35;;;;;;;;;;;23.00;57.40;;;;;;5095630;28;20210;-61
2023/10/14 03:28:12;;;;;;;;;;;23.00;57.40;;;;;;5096727;28;19954;-61
2023/10/14 03:30:46;;;;;;;;;;;23.00;57.40;;;;;;5097005;28;19924;-61
2023/10/14 03:33:19;;;;;;;;;;;23.00;57.40;;;;;;5096340;28;19924;-61
2023/10/14 03:36:03;;;;;;;;;;;23.00;57.40;;;;;;5096240;28;19930;-61
2023/10/14 03:38:39;;;;;;;;;;;23.00;57.40;;;;;;5096284;28;19924;-62
2023/10/14 03:41:21;;;;;;;;;;;23.00;57.50;;;;;;5096290;28;19982;-61
2023/10/14 03:43:59;;;;;;;;;;;23.00;57.50;;;;;;5096569;28;19924;-61
2023/10/14 03:46:41;;;;;;;;;;;23.00;57.50;;;;;;5096358;28;19932;-61
2023/10/14 03:49:20;;;;;;;;;;;23.00;57.50;;;;;;5096299;28;20015;-61
2023/10/14 03:51:51;;;;;;;;;;;23.00;57.50;;;;;;5095961;28;19978;-63
2023/10/14 03:54:24;;;;;;;;;;;23.00;57.50;;;;;;5095842;28;19946;-62
2023/10/14 03:56:51;;;;;;;;;;;23.00;57.50;;;;;;5095721;28;19930;-64
2023/10/14 03:59:24;;;;;;;;;;;23.00;57.50;;;;;;5095938;28;20452;-61
2023/10/14 04:01:57;;;;;;;;;;;23.00;58.10;;;;;;5096128;28;19925;-62
2023/10/14 04:04:26;;;;;;;;;;;23.00;57.60;;;;;;5096097;28;19930;-61
2023/10/14 04:09:47;;;;;;;;;;;23.00;57.60;;;;;;5094898;28;20027;-61
2023/10/14 04:15:07;;;;;;;;;;;23.00;57.50;;;;;;5095385;28;19969;-61
2023/10/14 04:17:34;;;;;;;;;;;23.00;57.40;;;;;;5095472;28;19928;-61
2023/10/14 04:20:21;;;;;;;;;;;23.00;57.40;;;;;;5095608;28;19924;-61
2023/10/14 04:22:51;;;;;;;;;;;23.00;57.40;;;;;;5095391;28;19939;-61
2023/10/14 04:25:19;;;;;;;;;;;23.00;57.40;;;;;;5095244;28;20451;-61
2023/10/14 04:30:42;;;;;;;;;;;23.00;57.40;;;;;;5094404;28;19969;-61
2023/10/14 04:33:17;;;;;;;;;;;23.00;57.40;;;;;;5095038;28;19935;-61
2023/10/14 04:36:08;;;;;;;;;;;23.00;57.40;;;;;;5094388;28;19925;-61
2023/10/14 04:38:38;;;;;;;;;;;23.00;57.40;;;;;;5094949;28;20011;-61
2023/10/14 04:41:12;;;;;;;;;;;23.00;57.30;;;;;;5095365;28;19956;-61
2023/10/14 04:44:00;;;;;;;;;;;23.00;57.20;;;;;;5094952;28;19931;-61
2023/10/14 04:46:46;;;;;;;;;;;23.00;57.10;;;;;;5094046;28;19934;-61
2023/10/14 04:49:16;;;;;;;;;;;23.00;57.10;;;;;;5095372;28;20026;-61
2023/10/14 04:51:46;;;;;;;;;;;23.00;56.90;;;;;;5094718;28;19934;-61
2023/10/14 04:54:19;;;;;;;;;;;23.00;57.40;;;;;;5094053;28;19928;-61
2023/10/14 04:56:47;;;;;;;;;;;23.00;56.90;;;;;;5093803;28;19924;-61
2023/10/14 04:59:19;;;;;;;;;;;23.00;56.80;;;;;;5094714;28;19928;-62
2023/10/14 05:01:48;;;;;;;;;;;23.00;56.80;;;;;;5094856;28;20346;-61
2023/10/14 05:04:19;;;;;;;;;;;23.00;56.80;;;;;;5094617;28;20388;-62
2023/10/14 05:06:48;;;;;;;;;;;23.00;56.80;;;;;;5093871;28;19974;-61
2023/10/14 05:09:30;;;;;;;;;;;23.00;56.80;;;;;;5094709;28;19967;-62
2023/10/14 05:11:57;;;;;;;;;;;22.90;56.60;;;;;;5094472;28;20011;-61
2023/10/14 05:14:36;;;;;;;;;;;23.00;56.60;;;;;;5093957;28;19951;-61
2023/10/14 05:17:14;;;;;;;;;;;23.00;56.60;;;;;;5094367;28;19969;-61
2023/10/14 05:19:43;;;;;;;;;;;23.00;56.60;;;;;;5094734;28;19924;-61
2023/10/14 05:22:13;;;;;;;;;;;22.90;56.50;;;;;;5093296;28;19931;-61
2023/10/14 05:24:48;;;;;;;;;;;23.00;56.50;;;;;;5094334;28;19924;-61
2023/10/14 05:27:17;;;;;;;;;;;23.00;56.40;;;;;;5094402;28;19961;-61
2023/10/14 05:29:50;;;;;;;;;;;23.00;56.30;;;;;;5094018;28;19932;-61
2023/10/14 05:32:26;;;;;;;;;;;23.00;56.30;;;;;;5093880;28;20439;-61
2023/10/14 05:34:54;;;;;;;;;;;23.00;56.20;;;;;;5093986;28;20385;-61
2023/10/14 05:37:21;;;;;;;;;;;23.00;56.20;;;;;;5093907;28;19925;-61
2023/10/14 05:39:54;;;;;;;;;;;23.00;56.10;;;;;;5094470;28;20265;-61
2023/10/14 05:42:22;;;;;;;;;;;23.00;56.20;;;;;;5093899;28;20402;-62
2023/10/14 05:44:57;;;;;;;;;;;23.00;56.10;;;;;;5094139;28;20000;-61
2023/10/14 05:47:27;;;;;;;;;;;23.00;56.10;;;;;;5093787;28;19964;-61
2023/10/14 05:49:54;;;;;;;;;;;23.00;56.10;;;;;;5093952;28;20334;-61
2023/10/14 05:52:24;;;;;;;;;;;23.00;56.00;;;;;;5093421;28;19924;-61
2023/10/14 05:54:51;;;;;;;;;;;23.00;56.00;;;;;;5094339;28;19928;-61
2023/10/14 05:57:20;;;;;;;;;;;23.00;56.00;;;;;;5092996;28;19977;-61
2023/10/14 05:59:48;;;;;;;;;;;23.00;56.00;;;;;;5093787;28;19924;-61
2023/10/14 06:02:15;;;;;;;;;;;23.10;55.90;;;;;;5093390;28;19924;-61
2023/10/14 06:04:42;;;;;;;;;;;23.10;55.90;;;;;;5092787;28;19924;-61
2023/10/14 06:07:11;;;;;;;;;;;23.10;55.90;;;;;;5093620;28;20023;-61
2023/10/14 06:09:39;;;;;;;;;;;23.10;55.80;;;;;;5093238;28;19931;-61
2023/10/14 06:12:12;;;;;;;;;;;23.10;55.70;;;;;;5093729;28;20276;-61
2023/10/14 06:14:41;;;;;;;;;;;23.10;55.70;;;;;;5093749;28;19931;-61
2023/10/14 06:17:08;;;;;;;;;;;23.10;56.20;;;;;;5093264;28;20412;-61
2023/10/14 06:19:36;;;;;;;;;;;23.10;55.60;;;;;;5093545;28;20022;-61
2023/10/14 06:22:03;;;;;;;;;;;23.10;55.50;;;;;;5092244;28;19935;-61
2023/10/14 06:24:33;;;;;;;;;;;23.10;55.50;;;;;;5093720;28;20014;-61
2023/10/14 06:27:20;;;;;;;;;;;23.20;55.50;;;;;;5096942;28;19924;-61
2023/10/14 06:29:48;;;;;;;;;;;23.20;55.40;;;;;;5097421;28;19924;-61
2023/10/14 06:32:15;;;;;;;;;;;23.20;55.40;;;;;;5097550;28;20011;-61
2023/10/14 06:34:57;;;;;;;;;;;23.20;55.30;;;;;;5097790;28;19924;-61
2023/10/14 06:37:25;;;;;;;;;;;23.20;55.20;;;;;;5097212;28;19954;-61
2023/10/14 06:39:54;;;;;;;;;;;23.30;55.30;;;;;;5097394;28;19924;-61
2023/10/14 06:42:22;;;;;;;;;;;23.30;55.30;;;;;;5097234;28;19931;-61
2023/10/14 06:44:51;;;;;;;;;;;23.30;55.20;;;;;;5097304;28;19924;-61
2023/10/14 06:47:21;;;;;;;;;;;23.30;55.10;;;;;;5097528;28;19932;-63
2023/10/14 06:49:50;;;;;;;;;;;23.30;55.00;;;;;;5097637;28;19947;-61
2023/10/14 06:52:18;;;;;;;;;;;23.40;55.00;;;;;;5097082;28;20018;-61
2023/10/14 06:54:46;;;;;;;;;;;23.40;54.90;;;;;;5082975;28;19931;-61
2023/10/14 06:57:14;;;;;;;;;;;23.40;54.80;;;;;;5076740;28;19928;-61
2023/10/14 06:59:42;;;;;;;;;;;23.40;54.80;;;;;;5076554;28;19924;-61
2023/10/14 07:02:10;;;;;;;;;;;23.40;54.70;;;;;;5076375;28;19932;-61
2023/10/14 07:04:38;;;;;;;;;;;23.40;54.70;;;;;;5087423;28;19924;-61
2023/10/14 07:07:09;;;;;;;;;;;23.50;54.70;;;;;;5096255;28;20467;-61
2023/10/14 07:09:39;;;;;;;;;;;23.50;54.60;;;;;;5095873;28;19924;-61
2023/10/14 07:12:19;;;;;;;;;;;23.50;54.60;;;;;;5090628;28;19963;-61
2023/10/14 07:14:47;;;;;;;;;;;23.50;54.60;;;;;;5075699;28;20001;-61
2023/10/14 07:17:25;;;;;;;;;;;23.50;54.50;;;;;;5074991;28;19974;-61
2023/10/14 07:19:52;;;;;;;;;;;23.50;54.50;;;;;;5082821;28;19924;-61
2023/10/14 07:22:22;;;;;;;;;;;23.60;54.60;;;;;;5096750;28;19928;-61
2023/10/14 07:24:50;;;;;;;;;;;23.60;54.50;;;;;;5095374;28;19924;-61
2023/10/14 07:27:18;;;;;;;;;;;23.60;54.50;;;;;;5096286;28;19969;-61
2023/10/14 07:29:45;;;;;;;;;;;23.60;54.50;;;;;;5089316;28;20377;-61
2023/10/14 07:32:16;;;;;;;;;;;23.60;54.40;;;;;;5076254;28;19925;-61
2023/10/14 07:34:43;;;;;;;;;;;23.60;54.40;;;;;;5076141;28;19967;-61
2023/10/14 07:37:13;;;;;;;;;;;23.60;54.40;;;;;;5075118;28;19928;-61
2023/10/14 07:39:40;;;;;;;;;;;23.60;54.30;;;;;;5076450;28;19928;-62
2023/10/14 07:42:13;;;;;;;;;;;23.60;54.30;;;;;;5089473;28;20015;-61
2023/10/14 07:44:40;;;;;;;;;;;23.70;54.30;;;;;;5096192;28;19924;-61
2023/10/14 07:47:10;;;;;;;;;;;23.70;54.30;;;;;;5095894;28;19924;-61
2023/10/14 07:49:38;;;;;;;;;;;23.70;54.20;;;;;;5096408;28;20257;-62
2023/10/14 07:52:14;;;;;;;;;;;23.70;54.20;;;;;;5095885;28;19928;-61
2023/10/14 07:54:42;;;;;;;;;;;23.70;54.20;;;;;;5095133;28;19974;-61
2023/10/14 07:57:12;;;;;;;;;;;23.70;54.20;;;;;;5095765;28;19924;-61
2023/10/14 07:59:39;;;;;;;;;;;23.80;54.10;;;;;;5096147;28;19975;-61
2023/10/14 08:02:07;;;;;;;;;;;23.80;54.20;;;;;;5082765;28;20338;-61
2023/10/14 08:04:35;;;;;;;;;;;23.80;54.10;;;;;;5075834;28;19928;-61
2023/10/14 08:07:06;;;;;;;;;;;23.80;54.00;;;;;;5074084;28;20439;-61
2023/10/14 08:09:39;;;;;;;;;;;23.80;54.00;;;;;;5075363;28;19924;-62
2023/10/14 08:12:06;;;;;;;;;;;23.90;54.00;;;;;;5075611;28;19924;-61
2023/10/14 08:14:33;;;;;;;;;;;23.90;54.00;;;;;;5075150;28;19924;-62
2023/10/14 08:17:00;;;;;;;;;;;23.90;53.90;;;;;;5087637;28;20383;-61
2023/10/14 08:19:27;;;;;;;;;;;23.90;53.90;;;;;;5095533;28;19967;-61
2023/10/14 08:21:54;;;;;;;;;;;23.90;53.90;;;;;;5095332;28;19924;-62
2023/10/14 08:24:21;;;;;;;;;;;23.90;53.90;;;;;;5094725;28;19924;-61
2023/10/14 08:26:49;;;;;;;;;;;23.90;53.80;;;;;;5095256;28;19925;-61
2023/10/14 08:29:19;;;;;;;;;;;23.90;53.80;;;;;;5095654;28;19966;-61
2023/10/14 08:31:51;;;;;;;;;;;23.90;53.90;;;;;;5094356;28;20257;-62
2023/10/14 08:34:19;;;;;;;;;;;23.90;53.80;;;;;;5095682;28;20439;-61
2023/10/14 08:36:46;;;;;;;;;;;23.90;53.80;;;;;;5094876;28;19967;-62
2023/10/14 08:39:14;;;;;;;;;;;23.90;53.80;;;;;;5095354;28;20405;-61
2023/10/14 08:41:45;;;;;;;;;;;23.90;53.80;;;;;;5095388;28;20296;-61
2023/10/14 08:44:12;;;;;;;;;;;23.90;54.40;;;;;;5088071;28;19924;-61
2023/10/14 08:46:40;;;;;;;;;;;24.00;53.90;;;;;;5074820;28;19970;-62
2023/10/14 08:49:08;;;;;;;;;;;24.00;54.40;;;;;;5073840;28;19924;-61
2023/10/14 08:51:37;;;;;;;;;;;24.00;53.80;;;;;;5074728;28;19990;-61
2023/10/14 08:54:23;;;;;;;;;;;24.00;53.80;;;;;;5074513;28;20016;-61
2023/10/14 08:56:51;;;;;;;;;;;24.00;53.80;;;;;;5085087;28;20265;-62
2023/10/14 08:59:18;;;;;;;;;;;24.00;53.80;;;;;;5095170;28;19924;-61
2023/10/14 09:01:51;;;;;;;;;;;24.00;53.80;;;;;;5094520;28;19928;-61
2023/10/14 09:04:26;;;;;;;;;;;24.00;53.80;;;;;;5094683;28;20011;-61
2023/10/14 09:06:59;;;;;;;;;;;24.00;53.80;;;;;;5094845;28;20287;-61
2023/10/14 09:09:26;;;;;;;;;;;24.00;53.80;;;;;;5094819;28;19924;-61
2023/10/14 09:11:53;;;;;;;;;;;24.10;53.90;;;;;;5094183;28;19954;-61
2023/10/14 09:14:20;;;;;;;;;;;24.10;53.90;;;;;;5094780;28;19982;-61
2023/10/14 09:16:53;;;;;;;;;;;24.10;53.80;;;;;;5094277;28;19924;-61
2023/10/14 09:19:21;;;;;;;;;;;24.10;53.90;;;;;;5094417;28;19979;-61
2023/10/14 09:21:49;;;;;;;;;;;24.10;53.80;;;;;;5094255;28;19924;-61
2023/10/14 09:24:20;;;;;;;;;;;24.10;53.80;;;;;;5094567;28;19924;-61
2023/10/14 09:26:47;;;;;;;;;;;24.10;53.80;;;;;;5094262;28;19924;-61
2023/10/14 09:29:14;;;;;;;;;;;24.10;53.80;;;;;;5094087;28;20431;-61
2023/10/14 09:31:44;;;;;;;;;;;24.10;53.80;;;;;;5093927;28;20382;-61
2023/10/14 09:34:20;;;;;;;;;;;24.10;53.80;;;;;;5094484;28;19924;-61
2023/10/14 09:36:49;;;;;;;;;;;24.20;53.80;;;;;;5093791;28;20467;-61
2023/10/14 09:39:20;;;;;;;;;;;24.20;53.80;;;;;;5094097;28;19968;-61
2023/10/14 09:41:48;;;;;;;;;;;24.20;53.80;;;;;;5094278;28;19924;-62
2023/10/14 09:44:15;;;;;;;;;;;24.20;53.80;;;;;;5094170;28;19924;-61
2023/10/14 09:46:42;;;;;;;;;;;24.20;53.70;;;;;;5093690;28;20367;-61
2023/10/14 09:49:10;;;;;;;;;;;24.20;53.70;;;;;;5093790;28;19932;-61
2023/10/14 09:51:38;;;;;;;;;;;24.20;53.70;;;;;;5093557;28;19924;-61
2023/10/14 09:54:06;;;;;;;;;;;24.20;53.70;;;;;;5094284;28;20047;-61
2023/10/14 09:56:36;;;;;;;;;;;24.20;53.80;;;;;;5093666;28;19977;-61
2023/10/14 09:59:10;;;;;;;;;;;24.30;53.80;;;;;;5093975;28;19924;-61
2023/10/14 10:01:37;;;;;;;;;;;24.30;53.90;;;;;;5093718;28;20015;-61
2023/10/14 10:04:10;;;;;;;;;;;24.30;53.80;;;;;;5093697;28;19967;-61
2023/10/14 10:06:49;;;;;;;;;;;24.30;53.80;;;;;;5092706;28;19975;-61
2023/10/14 10:09:35;;;;;;;;;;;24.20;53.80;;;;;;5093983;28;20276;-61
2023/10/14 10:12:08;;;;;;;;;;;24.30;53.80;;;;;;5092095;28;19977;-61
2023/10/14 10:14:37;;;;;;;;;;;24.30;53.80;;;;;;5093566;28;19928;-61
2023/10/14 10:17:08;;;;;;;;;;;24.30;53.80;;;;;;5093379;28;20002;-61
2023/10/14 10:19:55;;;;;;;;;;;24.30;53.80;;;;;;5093745;28;20285;-61
2023/10/14 10:22:22;;;;;;;;;;;24.30;53.80;;;;;;5093566;28;19924;-61
2023/10/14 10:24:49;;;;;;;;;;;24.30;53.80;;;;;;5093499;28;19924;-61
2023/10/14 10:27:16;;;;;;;;;;;24.30;53.80;;;;;;5093452;28;20277;-61
2023/10/14 10:29:51;;;;;;;;;;;24.30;53.80;;;;;;5093808;28;19967;-61
2023/10/14 10:32:19;;;;;;;;;;;24.30;53.80;;;;;;5092918;28;20438;-61
2023/10/14 10:35:10;;;;;;;;;;;24.30;53.80;;;;;;5093727;28;19924;-61
2023/10/14 10:37:40;;;;;;;;;;;24.30;53.70;;;;;;5078380;28;19924;-61
2023/10/14 10:40:10;;;;;;;;;;;24.30;53.70;;;;;;5093636;28;20026;-61
2023/10/14 10:42:41;;;;;;;;;;;24.30;53.70;;;;;;5093784;28;19978;-61
2023/10/14 10:45:14;;;;;;;;;;;24.30;53.60;;;;;;5093677;28;19935;-61
2023/10/14 10:47:45;;;;;;;;;;;24.30;53.60;;;;;;5093091;28;19967;-61
2023/10/14 10:50:15;;;;;;;;;;;24.40;53.60;;;;;;5093222;28;20435;-61
2023/10/14 10:52:45;;;;;;;;;;;24.30;53.50;;;;;;5092937;28;19925;-61
2023/10/14 10:55:14;;;;;;;;;;;24.40;53.50;;;;;;5093096;28;20023;-61
2023/10/14 10:57:44;;;;;;;;;;;24.40;53.50;;;;;;5092962;28;19942;-61
2023/10/14 11:00:11;;;;;;;;;;;24.40;53.40;;;;;;5093472;28;19924;-61
2023/10/14 11:02:39;;;;;;;;;;;24.40;53.50;;;;;;5093098;28;19924;-61
2023/10/14 11:05:06;;;;;;;;;;;24.40;53.40;;;;;;5093241;28;19928;-61
2023/10/14 11:07:33;;;;;;;;;;;24.40;53.40;;;;;;5074147;28;19972;-61
2023/10/14 11:10:00;;;;;;;;;;;24.40;53.60;;;;;;5073538;28;20327;-63
2023/10/14 11:12:27;;;;;;;;;;;24.40;53.40;;;;;;5090985;28;19924;-61
2023/10/14 11:14:58;;;;;;;;;;;24.40;53.40;;;;;;5097061;28;20019;-61
2023/10/14 11:17:26;;;;;;;;;;;24.40;53.40;;;;;;5096548;28;19924;-61
2023/10/14 11:19:54;;;;;;;;;;;24.40;53.40;;;;;;5084661;28;19933;-61
2023/10/14 11:22:20;;;;;;;;;;;24.40;53.40;;;;;;5076258;28;20307;-61
2023/10/14 11:24:47;;;;;;;;;;;24.50;53.40;;;;;;5095561;28;19925;-61
2023/10/14 11:27:14;;;;;;;;;;;24.40;53.40;;;;;;5096722;28;19974;-62
2023/10/14 11:29:45;;;;;;;;;;;24.50;53.40;;;;;;5096912;28;19924;-61
2023/10/14 11:32:12;;;;;;;;;;;24.40;53.40;;;;;;5094702;28;20056;-61
2023/10/14 11:34:42;;;;;;;;;;;24.50;53.40;;;;;;5080762;28;19928;-61
2023/10/14 11:37:10;;;;;;;;;;;24.40;53.40;;;;;;5089863;28;20261;-61
2023/10/14 11:39:38;;;;;;;;;;;24.50;53.40;;;;;;5097116;28;20277;-61
2023/10/14 11:42:05;;;;;;;;;;;24.50;53.40;;;;;;5094655;28;20248;-61
2023/10/14 11:44:32;;;;;;;;;;;24.50;53.40;;;;;;5078330;28;19936;-61
2023/10/14 11:47:05;;;;;;;;;;;24.50;53.40;;;;;;5076079;28;19924;-61
2023/10/14 11:49:32;;;;;;;;;;;24.50;53.40;;;;;;5076301;28;19925;-61
2023/10/14 11:52:00;;;;;;;;;;;24.50;53.40;;;;;;5075787;28;20312;-61
2023/10/14 11:54:28;;;;;;;;;;;24.50;53.40;;;;;;5075739;28;20385;-61
2023/10/14 11:56:55;;;;;;;;;;;24.50;53.30;;;;;;5075932;28;20343;-61
2023/10/14 11:59:22;;;;;;;;;;;24.50;53.30;;;;;;5075814;28;20011;-61
2023/10/14 12:01:50;;;;;;;;;;;24.50;53.30;;;;;;5075655;28;20023;-61
2023/10/14 12:04:16;;;;;;;;;;;24.50;53.30;;;;;;5080600;28;20438;-61
2023/10/14 12:06:44;;;;;;;;;;;24.50;53.30;;;;;;5087726;28;19924;-61
2023/10/14 12:09:11;;;;;;;;;;;24.50;53.30;;;;;;5092194;28;20010;-62
2023/10/14 12:11:45;;;;;;;;;;;24.50;53.20;;;;;;5095281;28;19924;-61
2023/10/14 12:14:14;;;;;;;;;;;24.50;53.20;;;;;;5095056;28;20296;-62
2023/10/14 12:16:42;;;;;;;;;;;24.60;53.30;;;;;;5095150;28;19924;-61
2023/10/14 12:19:14;;;;;;;;;;;24.50;53.20;;;;;;5095466;28;20031;-61
2023/10/14 12:21:42;;;;;;;;;;;24.50;53.10;;;;;;5095601;28;19924;-61
2023/10/14 12:24:09;;;;;;;;;;;24.60;53.20;;;;;;5094603;28;20368;-61
2023/10/14 12:26:44;;;;;;;;;;;24.60;53.20;;;;;;5095236;28;19928;-61
2023/10/14 12:29:12;;;;;;;;;;;24.60;53.20;;;;;;5095224;28;20373;-61
2023/10/14 12:31:44;;;;;;;;;;;24.60;53.20;;;;;;5095464;28;19931;-61
2023/10/14 12:34:14;;;;;;;;;;;24.60;53.20;;;;;;5094251;28;19928;-61
2023/10/14 12:36:42;;;;;;;;;;;24.60;53.20;;;;;;5094664;28;20434;-61
2023/10/14 12:39:19;;;;;;;;;;;24.60;53.10;;;;;;5094619;28;19931;-61
2023/10/14 12:41:49;;;;;;;;;;;24.60;53.10;;;;;;5095060;28;19935;-61
2023/10/14 12:44:18;;;;;;;;;;;24.60;53.00;;;;;;5095231;28;20308;-61
2023/10/14 12:46:45;;;;;;;;;;;24.60;53.00;;;;;;5092283;28;19964;-61
2023/10/14 12:49:18;;;;;;;;;;;24.60;53.00;;;;;;5074590;28;19925;-61
2023/10/14 12:51:46;;;;;;;;;;;24.60;53.00;;;;;;5073568;28;19925;-61
2023/10/14 12:54:16;;;;;;;;;;;24.60;53.10;;;;;;5074350;28;19950;-61
2023/10/14 12:56:43;;;;;;;;;;;24.60;53.10;;;;;;5091300;28;20288;-61
2023/10/14 12:59:14;;;;;;;;;;;24.50;53.10;;;;;;5094693;28;20395;-61
2023/10/14 13:01:53;;;;;;;;;;;24.60;53.10;;;;;;5094625;28;20392;-61
2023/10/14 13:04:23;;;;;;;;;;;24.60;53.10;;;;;;5093879;28;19931;-61
2023/10/14 13:06:50;;;;;;;;;;;24.60;53.10;;;;;;5093826;28;19976;-61
2023/10/14 13:09:17;;;;;;;;;;;24.60;53.10;;;;;;5094932;28;20015;-61
2023/10/14 13:11:44;;;;;;;;;;;24.60;53.50;;;;;;5094627;28;20284;-61
2023/10/14 13:14:25;;;;;;;;;;;24.60;53.00;;;;;;5093815;28;19924;-61
2023/10/14 13:16:54;;;;;;;;;;;24.60;53.00;;;;;;5093860;28;19970;-61
2023/10/14 13:19:23;;;;;;;;;;;24.60;53.10;;;;;;5094433;28;19924;-61
2023/10/14 13:21:53;;;;;;;;;;;24.60;53.00;;;;;;5094744;28;19924;-61
2023/10/14 13:24:21;;;;;;;;;;;24.50;52.90;;;;;;5093657;28;19931;-61
2023/10/14 13:26:48;;;;;;;;;;;24.60;53.00;;;;;;5094808;28;19928;-61
2023/10/14 13:29:15;;;;;;;;;;;24.60;53.00;;;;;;5094535;28;19959;-61
2023/10/14 13:31:42;;;;;;;;;;;24.60;53.00;;;;;;5093966;28;19924;-61
2023/10/14 13:34:09;;;;;;;;;;;24.60;52.90;;;;;;5094457;28;19946;-61
2023/10/14 13:36:36;;;;;;;;;;;24.60;52.90;;;;;;5092560;28;19924;-61
2023/10/14 13:39:21;;;;;;;;;;;24.60;52.90;;;;;;5094234;28;20015;-61
2023/10/14 13:41:48;;;;;;;;;;;24.60;52.80;;;;;;5093821;28;19928;-61
2023/10/14 13:44:15;;;;;;;;;;;24.60;52.80;;;;;;5093279;28;19931;-61
2023/10/14 13:46:43;;;;;;;;;;;24.60;52.70;;;;;;5094045;28;19924;-61
2023/10/14 13:49:10;;;;;;;;;;;24.70;52.70;;;;;;5094262;28;19924;-61
2023/10/14 13:51:40;;;;;;;;;;;24.70;52.70;;;;;;5093968;28;20335;-61
2023/10/14 13:54:08;;;;;;;;;;;24.60;52.60;;;;;;5092542;28;19932;-61
2023/10/14 13:56:35;;;;;;;;;;;24.60;52.60;;;;;;5093764;28;19924;-61
2023/10/14 13:59:04;;;;;;;;;;;24.60;52.50;;;;;;5092587;28;19924;-61
2023/10/14 14:01:32;;;;;;;;;;;24.60;52.60;;;;;;5092189;28;19925;-61
2023/10/14 14:04:00;;;;;;;;;;;24.60;52.60;;;;;;5093205;28;19931;-61
2023/10/14 14:06:28;;;;;;;;;;;24.60;52.70;;;;;;5093083;28;19968;-61
2023/10/14 14:08:56;;;;;;;;;;;24.60;52.70;;;;;;5093892;28;20010;-61
2023/10/14 14:11:23;;;;;;;;;;;24.60;52.70;;;;;;5094009;28;19927;-61
2023/10/14 14:13:51;;;;;;;;;;;24.60;52.70;;;;;;5093320;28;20027;-61
2023/10/14 14:16:18;;;;;;;;;;;24.60;52.70;;;;;;5092968;28;19974;-61
2023/10/14 14:18:49;;;;;;;;;;;24.60;52.70;;;;;;5093472;28;20277;-61
2023/10/14 14:21:16;;;;;;;;;;;24.60;52.70;;;;;;5093942;28;19924;-62
2023/10/14 14:23:44;;;;;;;;;;;24.60;52.80;;;;;;5093450;28;19932;-63
2023/10/14 14:26:18;;;;;;;;;;;24.60;52.80;;;;;;5092561;28;19968;-62
2023/10/14 14:28:46;;;;;;;;;;;24.60;52.80;;;;;;5085817;28;19925;-61
2023/10/14 14:31:13;;;;;;;;;;;24.60;52.80;;;;;;5086449;28;20440;-62
2023/10/14 14:33:42;;;;;;;;;;;24.60;52.90;;;;;;5093197;28;20022;-62
2023/10/14 14:36:12;;;;;;;;;;;24.60;52.90;;;;;;5093581;28;19970;-64
2023/10/14 14:38:40;;;;;;;;;;;24.60;52.90;;;;;;5093811;28;19927;-67
2023/10/14 14:41:07;;;;;;;;;;;24.60;52.90;;;;;;5093714;28;19928;-61
2023/10/14 14:43:35;;;;;;;;;;;24.60;53.00;;;;;;5093069;28;19974;-61